Terminal Aerodrome Forecast
Issued by NWS Billings, MT

Home | Current Version | Previous Version | Text Only | Print | Product List | Glossary Off
Versions: 1 2 3 4 5 6 7 8 9 10 11 12 13 14

000
FTUS45 KBYZ 170520
TAFMLS
TAF
KMLS 170520Z 1706/1806 VRB05KT P6SM VCFG FEW005 FEW040
     FM170900 VRB05KT 3SM BR SCT003
      TEMPO 1710/1714 1/2SM FG VV002
     FM171600 16008KT P6SM SCT200=

USA.gov is the U.S. government's official web portal to all federal, state and local government web resources and services.